sensor_id;sensor_type;location;lat;lon;timestamp;pressure;altitude;pressure_sealevel;temperature;humidity
63339;BME280;47485;51.378;-1.342;2023-02-03T00:02:14;101511.55;;;2.45;55.52
63339;BME280;47485;51.378;-1.342;2023-02-03T00:04:41;101511.92;;;1.28;54.27
63339;BME280;47485;51.378;-1.342;2023-02-03T00:07:09;101509.25;;;1.90;54.98
63339;BME280;47485;51.378;-1.342;2023-02-03T00:09:38;101508.19;;;2.84;51.92
63339;BME280;47485;51.378;-1.342;2023-02-03T00:12:06;101516.41;;;1.83;55.61
63339;BME280;47485;51.378;-1.342;2023-02-03T00:14:33;101525.61;;;2.06;54.67
63339;BME280;47485;51.378;-1.342;2023-02-03T00:17:00;101534.85;;;2.08;54.11
63339;BME280;47485;51.378;-1.342;2023-02-03T00:19:26;101535.80;;;1.86;53.84
63339;BME280;47485;51.378;-1.342;2023-02-03T00:21:53;101536.58;;;1.74;54.65
63339;BME280;47485;51.378;-1.342;2023-02-03T00:24:20;101530.40;;;2.76;53.88
63339;BME280;47485;51.378;-1.342;2023-02-03T00:26:47;101536.18;;;2.27;53.80
63339;BME280;47485;51.378;-1.342;2023-02-03T00:29:14;101526.62;;;2.30;54.65
63339;BME280;47485;51.378;-1.342;2023-02-03T00:31:40;101524.96;;;0.11;55.84
63339;BME280;47485;51.378;-1.342;2023-02-03T00:34:07;101519.09;;;2.13;53.28
63339;BME280;47485;51.378;-1.342;2023-02-03T00:36:35;101516.75;;;2.87;53.66
63339;BME280;47485;51.378;-1.342;2023-02-03T00:39:02;101521.90;;;2.49;54.42
63339;BME280;47485;51.378;-1.342;2023-02-03T00:41:30;101529.49;;;3.72;51.05
63339;BME280;47485;51.378;-1.342;2023-02-03T00:43:56;101532.50;;;2.61;51.28
63339;BME280;47485;51.378;-1.342;2023-02-03T00:46:23;101533.22;;;3.30;50.14
63339;BME280;47485;51.378;-1.342;2023-02-03T00:48:50;101537.99;;;3.43;51.43
63339;BME280;47485;51.378;-1.342;2023-02-03T00:51:17;101536.32;;;2.68;50.98
63339;BME280;47485;51.378;-1.342;2023-02-03T00:53:44;101519.19;;;2.97;51.00
63339;BME280;47485;51.378;-1.342;2023-02-03T00:56:11;101508.33;;;2.38;52.26
63339;BME280;47485;51.378;-1.342;2023-02-03T00:58:38;101500.40;;;3.44;52.51
63339;BME280;47485;51.378;-1.342;2023-02-03T01:01:06;101490.19;;;3.09;54.19
63339;BME280;47485;51.378;-1.342;2023-02-03T01:03:33;101496.75;;;2.42;53.21
63339;BME280;47485;51.378;-1.342;2023-02-03T01:06:08;101496.24;;;3.02;54.51
63339;BME280;47485;51.378;-1.342;2023-02-03T01:08:35;101498.50;;;2.41;53.15
63339;BME280;47485;51.378;-1.342;2023-02-03T01:11:05;101503.56;;;2.38;52.08
63339;BME280;47485;51.378;-1.342;2023-02-03T01:13:32;101499.20;;;4.00;50.07
63339;BME280;47485;51.378;-1.342;2023-02-03T01:15:59;101490.95;;;1.77;52.71
63339;BME280;47485;51.378;-1.342;2023-02-03T01:18:26;101491.05;;;3.02;52.02
63339;BME280;47485;51.378;-1.342;2023-02-03T01:20:53;101490.47;;;3.69;48.76
63339;BME280;47485;51.378;-1.342;2023-02-03T01:23:20;101491.32;;;3.75;45.98
63339;BME280;47485;51.378;-1.342;2023-02-03T01:25:46;101491.75;;;4.81;44.99
63339;BME280;47485;51.378;-1.342;2023-02-03T01:28:13;101499.50;;;2.67;50.31
63339;BME280;47485;51.378;-1.342;2023-02-03T01:30:40;101503.97;;;3.77;47.62
63339;BME280;47485;51.378;-1.342;2023-02-03T01:33:07;101501.22;;;4.63;48.82
63339;BME280;47485;51.378;-1.342;2023-02-03T01:35:33;101503.47;;;2.84;50.40
63339;BME280;47485;51.378;-1.342;2023-02-03T01:38:00;101502.80;;;3.04;52.19
63339;BME280;47485;51.378;-1.342;2023-02-03T01:40:28;101496.50;;;2.82;50.50
63339;BME280;47485;51.378;-1.342;2023-02-03T01:42:54;101490.66;;;1.98;52.33
63339;BME280;47485;51.378;-1.342;2023-02-03T01:45:21;101485.30;;;1.95;54.02
63339;BME280;47485;51.378;-1.342;2023-02-03T01:47:51;101479.77;;;2.58;52.61
63339;BME280;47485;51.378;-1.342;2023-02-03T01:50:21;101473.46;;;3.42;51.75
63339;BME280;47485;51.378;-1.342;2023-02-03T01:52:52;101471.33;;;2.13;53.56
63339;BME280;47485;51.378;-1.342;2023-02-03T01:55:24;101477.16;;;2.25;53.31
63339;BME280;47485;51.378;-1.342;2023-02-03T01:57:56;101472.68;;;2.22;53.51
63339;BME280;47485;51.378;-1.342;2023-02-03T02:00:26;101469.94;;;2.00;53.14
63339;BME280;47485;51.378;-1.342;2023-02-03T02:02:54;101468.48;;;1.10;54.87
63339;BME280;47485;51.378;-1.342;2023-02-03T02:05:27;101474.55;;;1.94;53.21
63339;BME280;47485;51.378;-1.342;2023-02-03T02:07:57;101480.16;;;2.28;51.74
63339;BME280;47485;51.378;-1.342;2023-02-03T02:10:26;101475.82;;;0.39;54.16
63339;BME280;47485;51.378;-1.342;2023-02-03T02:12:55;101480.35;;;1.91;52.38
63339;BME280;47485;51.378;-1.342;2023-02-03T02:15:26;101475.93;;;1.70;53.25
63339;BME280;47485;51.378;-1.342;2023-02-03T02:18:10;101470.55;;;2.78;51.66
63339;BME280;47485;51.378;-1.342;2023-02-03T02:21:05;101459.65;;;2.57;54.23
63339;BME280;47485;51.378;-1.342;2023-02-03T02:23:55;101457.91;;;1.36;54.16
63339;BME280;47485;51.378;-1.342;2023-02-03T02:26:50;101460.05;;;2.65;52.20
63339;BME280;47485;51.378;-1.342;2023-02-03T02:29:48;101460.63;;;0.22;54.08
63339;BME280;47485;51.378;-1.342;2023-02-03T02:32:24;101462.70;;;1.29;55.36
63339;BME280;47485;51.378;-1.342;2023-02-03T02:35:01;101464.95;;;0.18;57.39
63339;BME280;47485;51.378;-1.342;2023-02-03T02:37:36;101462.47;;;1.56;54.58
63339;BME280;47485;51.378;-1.342;2023-02-03T02:40:11;101462.35;;;1.74;54.28
63339;BME280;47485;51.378;-1.342;2023-02-03T02:42:48;101463.80;;;2.47;51.54
63339;BME280;47485;51.378;-1.342;2023-02-03T02:45:24;101468.28;;;2.20;52.29
63339;BME280;47485;51.378;-1.342;2023-02-03T02:47:58;101484.11;;;2.82;52.13
63339;BME280;47485;51.378;-1.342;2023-02-03T02:50:28;101479.96;;;3.07;51.11
63339;BME280;47485;51.378;-1.342;2023-02-03T02:52:57;101483.23;;;3.26;50.51
63339;BME280;47485;51.378;-1.342;2023-02-03T02:55:28;101493.49;;;1.86;51.90
63339;BME280;47485;51.378;-1.342;2023-02-03T02:58:05;101493.64;;;4.00;50.65
63339;BME280;47485;51.378;-1.342;2023-02-03T03:00:34;101499.34;;;2.43;52.21
63339;BME280;47485;51.378;-1.342;2023-02-03T03:03:20;101500.94;;;3.33;52.16
63339;BME280;47485;51.378;-1.342;2023-02-03T03:05:52;101497.63;;;2.27;52.06
63339;BME280;47485;51.378;-1.342;2023-02-03T03:08:23;101497.77;;;2.45;51.21
63339;BME280;47485;51.378;-1.342;2023-02-03T03:10:52;101496.85;;;3.32;49.27
63339;BME280;47485;51.378;-1.342;2023-02-03T03:13:23;101492.54;;;2.36;49.52
63339;BME280;47485;51.378;-1.342;2023-02-03T03:15:55;101501.35;;;4.38;48.16
63339;BME280;47485;51.378;-1.342;2023-02-03T03:18:28;101505.95;;;3.62;49.11
63339;BME280;47485;51.378;-1.342;2023-02-03T03:20:59;101512.22;;;2.80;47.46
63339;BME280;47485;51.378;-1.342;2023-02-03T03:23:30;101508.93;;;4.42;45.14
63339;BME280;47485;51.378;-1.342;2023-02-03T03:25:59;101510.50;;;3.28;47.97
63339;BME280;47485;51.378;-1.342;2023-02-03T03:28:34;101519.30;;;1.64;49.13
63339;BME280;47485;51.378;-1.342;2023-02-03T03:31:04;101515.27;;;5.82;42.67
63339;BME280;47485;51.378;-1.342;2023-02-03T03:33:30;101517.06;;;6.65;41.88
63339;BME280;47485;51.378;-1.342;2023-02-03T03:36:01;101510.31;;;7.26;40.26
63339;BME280;47485;51.378;-1.342;2023-02-03T03:38:34;101504.62;;;5.77;42.95
63339;BME280;47485;51.378;-1.342;2023-02-03T03:41:06;101507.17;;;3.11;46.14
63339;BME280;47485;51.378;-1.342;2023-02-03T03:43:38;101500.40;;;4.47;44.76
63339;BME280;47485;51.378;-1.342;2023-02-03T03:46:12;101501.95;;;6.65;42.39
63339;BME280;47485;51.378;-1.342;2023-02-03T03:48:42;101503.79;;;6.19;41.64
63339;BME280;47485;51.378;-1.342;2023-02-03T03:51:17;101502.82;;;5.58;43.35
63339;BME280;47485;51.378;-1.342;2023-02-03T03:53:49;101486.96;;;5.45;42.42
63339;BME280;47485;51.378;-1.342;2023-02-03T03:56:24;101484.31;;;6.98;42.38
63339;BME280;47485;51.378;-1.342;2023-02-03T03:58:53;101480.36;;;5.40;44.17
63339;BME280;47485;51.378;-1.342;2023-02-03T04:01:21;101486.06;;;5.04;43.34
63339;BME280;47485;51.378;-1.342;2023-02-03T04:03:51;101487.38;;;4.45;45.98
63339;BME280;47485;51.378;-1.342;2023-02-03T04:06:20;101481.72;;;4.27;45.45
63339;BME280;47485;51.378;-1.342;2023-02-03T04:08:47;101486.16;;;4.00;46.73
63339;BME280;47485;51.378;-1.342;2023-02-03T04:11:14;101486.85;;;3.68;46.93
63339;BME280;47485;51.378;-1.342;2023-02-03T04:13:42;101484.78;;;4.31;45.61
63339;BME280;47485;51.378;-1.342;2023-02-03T04:16:10;101487.73;;;4.36;48.70
63339;BME280;47485;51.378;-1.342;2023-02-03T04:18:37;101488.96;;;3.70;46.92
63339;BME280;47485;51.378;-1.342;2023-02-03T04:21:04;101502.18;;;4.66;45.02
63339;BME280;47485;51.378;-1.342;2023-02-03T04:23:30;101509.51;;;1.07;50.20
63339;BME280;47485;51.378;-1.342;2023-02-03T04:26:00;101517.09;;;2.57;49.77
63339;BME280;47485;51.378;-1.342;2023-02-03T04:28:26;101524.88;;;3.18;49.66
63339;BME280;47485;51.378;-1.342;2023-02-03T04:30:53;101527.60;;;3.35;48.27
63339;BME280;47485;51.378;-1.342;2023-02-03T04:33:20;101526.05;;;4.94;45.24
63339;BME280;47485;51.378;-1.342;2023-02-03T04:35:47;101519.94;;;4.68;44.85
63339;BME280;47485;51.378;-1.342;2023-02-03T04:38:14;101519.86;;;4.25;46.24
63339;BME280;47485;51.378;-1.342;2023-02-03T04:40:40;101519.54;;;4.06;47.12
63339;BME280;47485;51.378;-1.342;2023-02-03T04:43:07;101526.39;;;3.64;49.52
63339;BME280;47485;51.378;-1.342;2023-02-03T04:45:34;101515.73;;;3.77;48.00
63339;BME280;47485;51.378;-1.342;2023-02-03T04:48:01;101522.59;;;4.22;46.24
63339;BME280;47485;51.378;-1.342;2023-02-03T04:50:28;101522.62;;;4.55;46.41
63339;BME280;47485;51.378;-1.342;2023-02-03T04:52:54;101527.90;;;3.87;47.88
63339;BME280;47485;51.378;-1.342;2023-02-03T04:55:21;101530.45;;;3.51;47.88
63339;BME280;47485;51.378;-1.342;2023-02-03T04:57:53;101535.40;;;5.04;45.13
63339;BME280;47485;51.378;-1.342;2023-02-03T05:00:20;101536.57;;;5.41;42.46
63339;BME280;47485;51.378;-1.342;2023-02-03T05:02:47;101539.50;;;4.40;46.29
63339;BME280;47485;51.378;-1.342;2023-02-03T05:05:13;101540.29;;;4.11;44.38
63339;BME280;47485;51.378;-1.342;2023-02-03T05:07:40;101542.42;;;4.73;42.63
63339;BME280;47485;51.378;-1.342;2023-02-03T05:10:08;101541.77;;;4.10;47.87
63339;BME280;47485;51.378;-1.342;2023-02-03T05:12:35;101547.82;;;3.09;46.84
63339;BME280;47485;51.378;-1.342;2023-02-03T05:15:01;101556.20;;;4.36;44.46
63339;BME280;47485;51.378;-1.342;2023-02-03T05:17:28;101565.24;;;3.72;44.08
63339;BME280;47485;51.378;-1.342;2023-02-03T05:19:55;101568.04;;;5.56;44.22
63339;BME280;47485;51.378;-1.342;2023-02-03T05:22:22;101559.05;;;5.16;43.88
63339;BME280;47485;51.378;-1.342;2023-02-03T05:24:48;101556.66;;;1.75;45.84
63339;BME280;47485;51.378;-1.342;2023-02-03T05:27:15;101551.42;;;5.47;41.11
63339;BME280;47485;51.378;-1.342;2023-02-03T05:29:42;101555.74;;;3.78;44.50
63339;BME280;47485;51.378;-1.342;2023-02-03T05:32:09;101558.43;;;4.45;44.35
63339;BME280;47485;51.378;-1.342;2023-02-03T05:34:36;101559.22;;;4.89;43.46
63339;BME280;47485;51.378;-1.342;2023-02-03T05:37:02;101567.30;;;3.92;43.63
63339;BME280;47485;51.378;-1.342;2023-02-03T05:39:29;101564.67;;;5.13;42.14
63339;BME280;47485;51.378;-1.342;2023-02-03T05:41:56;101575.33;;;5.88;41.33
63339;BME280;47485;51.378;-1.342;2023-02-03T05:44:24;101583.28;;;1.42;45.86
63339;BME280;47485;51.378;-1.342;2023-02-03T05:46:53;101585.18;;;6.14;41.76
63339;BME280;47485;51.378;-1.342;2023-02-03T05:49:21;101589.60;;;5.75;40.96
63339;BME280;47485;51.378;-1.342;2023-02-03T05:51:49;101597.76;;;5.14;42.88
63339;BME280;47485;51.378;-1.342;2023-02-03T05:54:16;101596.66;;;6.09;41.38
63339;BME280;47485;51.378;-1.342;2023-02-03T05:56:43;101597.61;;;4.90;41.48
63339;BME280;47485;51.378;-1.342;2023-02-03T05:59:09;101604.38;;;2.19;44.79
63339;BME280;47485;51.378;-1.342;2023-02-03T06:01:36;101605.90;;;6.01;42.91
63339;BME280;47485;51.378;-1.342;2023-02-03T06:04:04;101613.45;;;5.30;43.17
63339;BME280;47485;51.378;-1.342;2023-02-03T06:06:31;101614.38;;;5.93;41.36
63339;BME280;47485;51.378;-1.342;2023-02-03T06:08:57;101611.85;;;6.89;39.05
63339;BME280;47485;51.378;-1.342;2023-02-03T06:11:24;101615.77;;;6.04;39.32
63339;BME280;47485;51.378;-1.342;2023-02-03T06:13:51;101614.74;;;6.72;39.28
63339;BME280;47485;51.378;-1.342;2023-02-03T06:16:19;101620.86;;;5.95;40.24
63339;BME280;47485;51.378;-1.342;2023-02-03T06:18:45;101624.25;;;5.02;40.55
63339;BME280;47485;51.378;-1.342;2023-02-03T06:21:12;101622.05;;;6.12;41.99
63339;BME280;47485;51.378;-1.342;2023-02-03T06:23:39;101623.15;;;6.71;40.77
63339;BME280;47485;51.378;-1.342;2023-02-03T06:26:06;101625.97;;;6.88;41.57
63339;BME280;47485;51.378;-1.342;2023-02-03T06:28:32;101627.89;;;5.95;41.44
63339;BME280;47485;51.378;-1.342;2023-02-03T06:30:59;101623.57;;;6.85;40.31
63339;BME280;47485;51.378;-1.342;2023-02-03T06:33:26;101621.39;;;5.57;42.50
63339;BME280;47485;51.378;-1.342;2023-02-03T06:35:53;101620.48;;;6.30;40.59
63339;BME280;47485;51.378;-1.342;2023-02-03T06:38:20;101618.23;;;6.80;37.85
63339;BME280;47485;51.378;-1.342;2023-02-03T06:40:48;101618.06;;;6.37;38.46
63339;BME280;47485;51.378;-1.342;2023-02-03T06:43:15;101623.21;;;6.55;38.25
63339;BME280;47485;51.378;-1.342;2023-02-03T06:45:44;101622.69;;;6.44;38.46
63339;BME280;47485;51.378;-1.342;2023-02-03T06:48:11;101617.76;;;8.07;37.02
63339;BME280;47485;51.378;-1.342;2023-02-03T06:50:39;101615.52;;;7.57;36.92
63339;BME280;47485;51.378;-1.342;2023-02-03T06:53:05;101617.18;;;7.88;38.07
63339;BME280;47485;51.378;-1.342;2023-02-03T06:55:32;101621.69;;;5.79;39.69
63339;BME280;47485;51.378;-1.342;2023-02-03T06:57:59;101615.75;;;7.01;40.68
63339;BME280;47485;51.378;-1.342;2023-02-03T07:00:26;101611.07;;;4.92;41.30
63339;BME280;47485;51.378;-1.342;2023-02-03T07:02:53;101608.72;;;6.44;39.10
63339;BME280;47485;51.378;-1.342;2023-02-03T07:05:20;101609.18;;;6.58;38.30
63339;BME280;47485;51.378;-1.342;2023-02-03T07:07:48;101612.13;;;6.20;38.48
63339;BME280;47485;51.378;-1.342;2023-02-03T07:10:15;101617.75;;;8.22;36.15
63339;BME280;47485;51.378;-1.342;2023-02-03T07:12:42;101615.43;;;8.12;34.20
63339;BME280;47485;51.378;-1.342;2023-02-03T07:15:10;101611.71;;;8.92;36.16
63339;BME280;47485;51.378;-1.342;2023-02-03T07:17:37;101610.16;;;6.99;39.77
63339;BME280;47485;51.378;-1.342;2023-02-03T07:20:04;101615.33;;;5.92;40.15
63339;BME280;47485;51.378;-1.342;2023-02-03T07:22:31;101611.98;;;6.29;40.59
63339;BME280;47485;51.378;-1.342;2023-02-03T07:24:57;101611.34;;;7.60;37.78
63339;BME280;47485;51.378;-1.342;2023-02-03T07:27:24;101615.08;;;7.09;38.71
63339;BME280;47485;51.378;-1.342;2023-02-03T07:29:51;101620.83;;;6.68;40.20
63339;BME280;47485;51.378;-1.342;2023-02-03T07:32:19;101623.45;;;5.95;42.21
63339;BME280;47485;51.378;-1.342;2023-02-03T07:34:46;101624.35;;;4.17;43.31
63339;BME280;47485;51.378;-1.342;2023-02-03T07:37:12;101628.92;;;5.04;43.58
63339;BME280;47485;51.378;-1.342;2023-02-03T07:39:39;101632.63;;;4.10;46.50
63339;BME280;47485;51.378;-1.342;2023-02-03T07:42:06;101638.07;;;4.31;45.27
63339;BME280;47485;51.378;-1.342;2023-02-03T07:44:33;101646.37;;;4.90;45.03
63339;BME280;47485;51.378;-1.342;2023-02-03T07:47:00;101656.07;;;3.20;45.40
63339;BME280;47485;51.378;-1.342;2023-02-03T07:49:27;101660.67;;;3.21;46.10
63339;BME280;47485;51.378;-1.342;2023-02-03T07:51:55;101662.39;;;3.08;48.95
63339;BME280;47485;51.378;-1.342;2023-02-03T07:54:23;101657.76;;;1.53;51.22
63339;BME280;47485;51.378;-1.342;2023-02-03T07:56:49;101658.78;;;2.72;53.81
63339;BME280;47485;51.378;-1.342;2023-02-03T07:59:16;101664.16;;;1.50;50.38
63339;BME280;47485;51.378;-1.342;2023-02-03T08:01:43;101669.49;;;2.21;50.12
63339;BME280;47485;51.378;-1.342;2023-02-03T08:04:10;101676.20;;;2.54;49.57
63339;BME280;47485;51.378;-1.342;2023-02-03T08:06:36;101675.95;;;3.00;50.57
63339;BME280;47485;51.378;-1.342;2023-02-03T08:09:03;101683.00;;;4.34;49.49
63339;BME280;47485;51.378;-1.342;2023-02-03T08:11:30;101685.45;;;2.77;50.19
63339;BME280;47485;51.378;-1.342;2023-02-03T08:13:57;101695.61;;;3.82;51.05
63339;BME280;47485;51.378;-1.342;2023-02-03T08:16:23;101693.06;;;2.44;50.77
63339;BME280;47485;51.378;-1.342;2023-02-03T08:18:50;101697.65;;;2.60;51.14
63339;BME280;47485;51.378;-1.342;2023-02-03T08:21:17;101697.74;;;3.20;51.00
63339;BME280;47485;51.378;-1.342;2023-02-03T08:23:44;101693.96;;;2.73;49.67
63339;BME280;47485;51.378;-1.342;2023-02-03T08:26:11;101697.35;;;3.53;50.52
63339;BME280;47485;51.378;-1.342;2023-02-03T08:28:38;101704.31;;;1.35;51.92
63339;BME280;47485;51.378;-1.342;2023-02-03T08:31:08;101702.31;;;2.70;51.87
63339;BME280;47485;51.378;-1.342;2023-02-03T08:33:35;101705.32;;;2.72;51.07
63339;BME280;47485;51.378;-1.342;2023-02-03T08:36:02;101704.79;;;2.06;51.94
63339;BME280;47485;51.378;-1.342;2023-02-03T08:38:31;101715.01;;;2.65;51.86
63339;BME280;47485;51.378;-1.342;2023-02-03T08:40:57;101715.22;;;1.65;53.43
63339;BME280;47485;51.378;-1.342;2023-02-03T08:43:24;101712.46;;;2.75;52.39
63339;BME280;47485;51.378;-1.342;2023-02-03T08:45:51;101719.42;;;3.26;53.31
63339;BME280;47485;51.378;-1.342;2023-02-03T08:48:19;101716.68;;;2.63;53.48
63339;BME280;47485;51.378;-1.342;2023-02-03T08:50:45;101721.48;;;1.82;54.41
63339;BME280;47485;51.378;-1.342;2023-02-03T08:53:12;101721.08;;;1.65;55.79
63339;BME280;47485;51.378;-1.342;2023-02-03T08:55:39;101723.74;;;1.44;55.48
63339;BME280;47485;51.378;-1.342;2023-02-03T08:58:06;101725.10;;;2.00;53.61
63339;BME280;47485;51.378;-1.342;2023-02-03T09:00:33;101728.99;;;1.76;54.54
63339;BME280;47485;51.378;-1.342;2023-02-03T09:02:59;101721.82;;;1.67;53.72
63339;BME280;47485;51.378;-1.342;2023-02-03T09:05:28;101728.78;;;2.00;52.31
63339;BME280;47485;51.378;-1.342;2023-02-03T09:07:55;101722.07;;;1.83;52.87
63339;BME280;47485;51.378;-1.342;2023-02-03T09:10:22;101724.80;;;0.93;53.05
63339;BME280;47485;51.378;-1.342;2023-02-03T09:12:48;101723.64;;;1.33;53.60
63339;BME280;47485;51.378;-1.342;2023-02-03T09:15:15;101726.28;;;1.99;53.22
63339;BME280;47485;51.378;-1.342;2023-02-03T09:17:42;101720.84;;;1.24;52.31
63339;BME280;47485;51.378;-1.342;2023-02-03T09:20:10;101729.86;;;2.34;53.92
63339;BME280;47485;51.378;-1.342;2023-02-03T09:22:36;101733.79;;;2.05;53.79
63339;BME280;47485;51.378;-1.342;2023-02-03T09:25:04;101729.91;;;2.06;53.69
63339;BME280;47485;51.378;-1.342;2023-02-03T09:27:31;101734.10;;;1.69;54.37
63339;BME280;47485;51.378;-1.342;2023-02-03T09:29:57;101736.05;;;0.78;53.61
63339;BME280;47485;51.378;-1.342;2023-02-03T09:32:24;101733.51;;;2.18;54.44
63339;BME280;47485;51.378;-1.342;2023-02-03T09:34:52;101733.29;;;0.88;55.84
63339;BME280;47485;51.378;-1.342;2023-02-03T09:37:20;101733.59;;;2.35;54.02
63339;BME280;47485;51.378;-1.342;2023-02-03T09:39:47;101744.03;;;0.39;55.36
63339;BME280;47485;51.378;-1.342;2023-02-03T09:42:25;101750.33;;;1.87;55.47
63339;BME280;47485;51.378;-1.342;2023-02-03T09:45:05;101753.04;;;1.14;56.27
63339;BME280;47485;51.378;-1.342;2023-02-03T09:47:36;101754.38;;;2.02;55.83
63339;BME280;47485;51.378;-1.342;2023-02-03T09:50:07;101750.82;;;1.73;55.32
63339;BME280;47485;51.378;-1.342;2023-02-03T09:52:40;101747.38;;;1.06;54.88
63339;BME280;47485;51.378;-1.342;2023-02-03T09:55:15;101741.85;;;0.79;55.56
63339;BME280;47485;51.378;-1.342;2023-02-03T09:57:48;101737.63;;;2.26;53.12
63339;BME280;47485;51.378;-1.342;2023-02-03T10:00:21;101743.90;;;2.05;53.49
63339;BME280;47485;51.378;-1.342;2023-02-03T10:02:55;101736.88;;;2.92;53.48
63339;BME280;47485;51.378;-1.342;2023-02-03T10:05:34;101742.63;;;1.85;56.16
63339;BME280;47485;51.378;-1.342;2023-02-03T10:08:14;101747.85;;;2.62;55.10
63339;BME280;47485;51.378;-1.342;2023-02-03T10:10:49;101745.97;;;1.64;52.73
63339;BME280;47485;51.378;-1.342;2023-02-03T10:13:26;101749.76;;;2.93;51.74
63339;BME280;47485;51.378;-1.342;2023-02-03T10:16:05;101754.10;;;1.90;55.66
63339;BME280;47485;51.378;-1.342;2023-02-03T10:18:39;101756.15;;;2.41;54.40
63339;BME280;47485;51.378;-1.342;2023-02-03T10:21:12;101751.68;;;2.08;54.61
63339;BME280;47485;51.378;-1.342;2023-02-03T10:23:43;101745.19;;;2.81;53.07
63339;BME280;47485;51.378;-1.342;2023-02-03T10:26:15;101745.02;;;3.38;50.69
63339;BME280;47485;51.378;-1.342;2023-02-03T10:28:49;101749.74;;;3.27;50.53
63339;BME280;47485;51.378;-1.342;2023-02-03T10:31:19;101749.10;;;5.20;48.66
63339;BME280;47485;51.378;-1.342;2023-02-03T10:33:50;101747.86;;;3.95;50.53
63339;BME280;47485;51.378;-1.342;2023-02-03T10:36:21;101757.84;;;3.54;51.68
63339;BME280;47485;51.378;-1.342;2023-02-03T10:38:56;101761.98;;;1.69;54.04
63339;BME280;47485;51.378;-1.342;2023-02-03T10:41:24;101762.91;;;3.03;55.24
63339;BME280;47485;51.378;-1.342;2023-02-03T10:43:57;101763.67;;;3.05;53.55
63339;BME280;47485;51.378;-1.342;2023-02-03T10:46:27;101759.11;;;2.81;51.33
63339;BME280;47485;51.378;-1.342;2023-02-03T10:48:56;101763.23;;;3.90;50.49
63339;BME280;47485;51.378;-1.342;2023-02-03T10:51:24;101765.10;;;4.25;50.89
63339;BME280;47485;51.378;-1.342;2023-02-03T10:53:51;101765.50;;;4.41;50.08
63339;BME280;47485;51.378;-1.342;2023-02-03T10:56:22;101768.85;;;3.45;50.69
63339;BME280;47485;51.378;-1.342;2023-02-03T10:58:52;101776.07;;;2.52;52.51
63339;BME280;47485;51.378;-1.342;2023-02-03T11:01:22;101772.93;;;2.66;51.78
63339;BME280;47485;51.378;-1.342;2023-02-03T11:03:57;101781.73;;;3.40;51.93
63339;BME280;47485;51.378;-1.342;2023-02-03T11:06:25;101794.80;;;3.43;52.61
63339;BME280;47485;51.378;-1.342;2023-02-03T11:08:53;101798.19;;;2.80;51.87
63339;BME280;47485;51.378;-1.342;2023-02-03T11:11:23;101809.35;;;2.14;52.28
63339;BME280;47485;51.378;-1.342;2023-02-03T11:13:53;101813.39;;;2.16;51.89
63339;BME280;47485;51.378;-1.342;2023-02-03T11:16:20;101822.09;;;2.15;51.28
63339;BME280;47485;51.378;-1.342;2023-02-03T11:18:52;101818.78;;;3.42;49.94
63339;BME280;47485;51.378;-1.342;2023-02-03T11:21:21;101830.91;;;2.87;51.19
63339;BME280;47485;51.378;-1.342;2023-02-03T11:23:52;101831.98;;;2.72;50.89
63339;BME280;47485;51.378;-1.342;2023-02-03T11:26:23;101841.48;;;3.81;50.23
63339;BME280;47485;51.378;-1.342;2023-02-03T11:28:55;101840.22;;;2.72;51.28
63339;BME280;47485;51.378;-1.342;2023-02-03T11:31:24;101842.69;;;2.02;51.85
63339;BME280;47485;51.378;-1.342;2023-02-03T11:33:55;101842.36;;;3.70;48.20
63339;BME280;47485;51.378;-1.342;2023-02-03T11:36:25;101845.71;;;4.65;50.07
63339;BME280;47485;51.378;-1.342;2023-02-03T11:39:08;101842.76;;;3.21;50.82
63339;BME280;47485;51.378;-1.342;2023-02-03T11:41:37;101844.94;;;2.85;52.36
63339;BME280;47485;51.378;-1.342;2023-02-03T11:44:10;101829.76;;;3.85;51.10
63339;BME280;47485;51.378;-1.342;2023-02-03T11:46:37;101828.72;;;3.49;50.06
63339;BME280;47485;51.378;-1.342;2023-02-03T11:49:16;101838.07;;;3.68;49.84
63339;BME280;47485;51.378;-1.342;2023-02-03T11:51:52;101843.98;;;2.28;50.33
63339;BME280;47485;51.378;-1.342;2023-02-03T11:54:26;101848.65;;;3.62;47.07
63339;BME280;47485;51.378;-1.342;2023-02-03T11:57:15;101857.02;;;4.40;45.78
63339;BME280;47485;51.378;-1.342;2023-02-03T11:59:55;101856.98;;;4.84;46.28
63339;BME280;47485;51.378;-1.342;2023-02-03T12:02:58;101855.27;;;5.20;45.89
63339;BME280;47485;51.378;-1.342;2023-02-03T12:05:41;101852.30;;;4.47;46.05
63339;BME280;47485;51.378;-1.342;2023-02-03T12:08:22;101850.77;;;4.50;46.35
63339;BME280;47485;51.378;-1.342;2023-02-03T12:11:00;101853.68;;;3.66;47.57
63339;BME280;47485;51.378;-1.342;2023-02-03T12:13:44;101851.32;;;4.78;43.49
63339;BME280;47485;51.378;-1.342;2023-02-03T12:16:23;101852.34;;;4.71;43.92
63339;BME280;47485;51.378;-1.342;2023-02-03T12:19:03;101854.84;;;4.89;46.59
63339;BME280;47485;51.378;-1.342;2023-02-03T12:21:43;101855.48;;;4.34;45.89
63339;BME280;47485;51.378;-1.342;2023-02-03T12:24:18;101857.57;;;4.63;45.67
63339;BME280;47485;51.378;-1.342;2023-02-03T12:26:55;101861.25;;;3.61;49.22
63339;BME280;47485;51.378;-1.342;2023-02-03T12:29:29;101859.64;;;3.77;46.18
63339;BME280;47485;51.378;-1.342;2023-02-03T12:32:03;101858.70;;;4.34;47.78
63339;BME280;47485;51.378;-1.342;2023-02-03T12:34:34;101855.86;;;5.38;46.77
63339;BME280;47485;51.378;-1.342;2023-02-03T12:37:05;101852.36;;;4.47;45.94
63339;BME280;47485;51.378;-1.342;2023-02-03T12:39:39;101856.80;;;5.14;44.80
63339;BME280;47485;51.378;-1.342;2023-02-03T12:42:13;101863.09;;;5.00;44.00
63339;BME280;47485;51.378;-1.342;2023-02-03T12:44:46;101865.37;;;6.18;43.75
63339;BME280;47485;51.378;-1.342;2023-02-03T12:47:22;101872.32;;;5.05;44.87
63339;BME280;47485;51.378;-1.342;2023-02-03T12:49:54;101870.45;;;3.19;48.66
63339;BME280;47485;51.378;-1.342;2023-02-03T12:52:26;101875.57;;;4.16;47.00
63339;BME280;47485;51.378;-1.342;2023-02-03T12:55:01;101872.38;;;3.16;48.86
63339;BME280;47485;51.378;-1.342;2023-02-03T12:57:33;101875.42;;;3.68;48.37
63339;BME280;47485;51.378;-1.342;2023-02-03T13:00:09;101870.52;;;3.87;46.94
63339;BME280;47485;51.378;-1.342;2023-02-03T13:02:47;101869.94;;;3.88;45.08
63339;BME280;47485;51.378;-1.342;2023-02-03T13:05:22;101870.72;;;5.38;45.06